createdAt,value
2023-06-10T00:00:39.974Z,48.25
2023-06-10T00:03:06.513Z,48.41
2023-06-10T00:05:35.300Z,48.36
2023-06-10T00:08:07.414Z,48.47
2023-06-10T00:10:38.818Z,48.63
2023-06-10T00:13:08.334Z,48.84
2023-06-10T00:15:36.020Z,48.74
2023-06-10T00:18:04.191Z,48.83
2023-06-10T00:20:31.293Z,48.82
2023-06-10T00:23:01.885Z,48.63
2023-06-10T00:25:28.453Z,48.80
2023-06-10T00:27:55.766Z,49.04
2023-06-10T00:30:22.287Z,49.09
2023-06-10T00:32:50.364Z,49.27
2023-06-10T00:35:17.075Z,49.31
2023-06-10T00:37:43.665Z,49.12
2023-06-10T00:40:11.354Z,49.15
2023-06-10T00:42:38.134Z,49.43
2023-06-10T00:45:05.856Z,49.62
2023-06-10T00:47:32.621Z,49.61
2023-06-10T00:49:59.259Z,49.50
2023-06-10T00:52:27.807Z,49.51
2023-06-10T00:54:54.484Z,49.52
2023-06-10T00:57:21.590Z,49.62
2023-06-10T00:59:49.219Z,49.63
2023-06-10T01:02:15.789Z,49.83
2023-06-10T01:04:42.393Z,50.04
2023-06-10T01:07:31.726Z,50.17
2023-06-10T01:10:21.918Z,50.26
2023-06-10T01:13:03.182Z,50.28
2023-06-10T01:15:31.545Z,50.60
2023-06-10T01:18:00.386Z,50.72
2023-06-10T01:20:30.258Z,51.12
2023-06-10T01:22:58.441Z,51.32
2023-06-10T01:25:28.904Z,51.50
2023-06-10T01:28:02.187Z,51.50
2023-06-10T01:30:31.149Z,51.71
2023-06-10T01:32:57.951Z,51.83
2023-06-10T01:35:25.778Z,52.16
2023-06-10T01:37:53.720Z,52.26
2023-06-10T01:40:21.652Z,52.43
2023-06-10T01:42:48.322Z,52.65
2023-06-10T01:45:14.780Z,52.84
2023-06-10T01:47:41.368Z,52.88
2023-06-10T01:50:08.228Z,52.92
2023-06-10T01:52:36.073Z,53.17
2023-06-10T01:55:03.167Z,53.16
2023-06-10T01:57:30.658Z,53.27
2023-06-10T01:59:57.142Z,53.37
2023-06-10T02:02:25.392Z,53.52
2023-06-10T02:04:52.134Z,53.58
2023-06-10T02:07:21.322Z,53.66
2023-06-10T02:09:49.119Z,53.75
2023-06-10T02:12:17.461Z,53.89
2023-06-10T02:14:45.222Z,54.04
2023-06-10T02:17:13.147Z,54.18
2023-06-10T02:19:43.196Z,54.16
2023-06-10T02:22:10.582Z,54.33
2023-06-10T02:24:38.072Z,54.47
2023-06-10T02:27:07.092Z,54.63
2023-06-10T02:29:35.761Z,54.81
2023-06-10T02:32:03.113Z,54.86
2023-06-10T02:34:30.477Z,55.24
2023-06-10T02:36:57.610Z,55.29
2023-06-10T02:39:24.778Z,55.38
2023-06-10T02:41:52.548Z,55.45
2023-06-10T02:44:19.329Z,55.45
2023-06-10T02:46:46.362Z,55.69
2023-06-10T02:49:13.317Z,55.97
2023-06-10T02:51:39.781Z,56.05
2023-06-10T02:54:07.137Z,56.14
2023-06-10T02:56:35.450Z,56.28
2023-06-10T02:59:03.062Z,56.40
2023-06-10T03:01:32.142Z,56.35
2023-06-10T03:04:05.919Z,56.24
2023-06-10T03:06:34.269Z,56.29
2023-06-10T03:09:10.338Z,56.33
2023-06-10T03:11:38.156Z,56.33
2023-06-10T03:14:05.352Z,56.42
2023-06-10T03:16:32.940Z,56.44
2023-06-10T03:19:00.107Z,56.36
2023-06-10T03:21:27.620Z,56.59
2023-06-10T03:23:55.707Z,56.75
2023-06-10T03:26:22.256Z,56.80
2023-06-10T03:28:49.293Z,56.83
2023-06-10T03:31:17.302Z,56.83
2023-06-10T03:33:44.172Z,56.93
2023-06-10T03:36:10.948Z,56.84
2023-06-10T03:38:37.933Z,56.91
2023-06-10T03:41:04.803Z,56.96
2023-06-10T03:43:32.347Z,56.91
2023-06-10T03:45:59.522Z,57.12
2023-06-10T03:48:26.210Z,57.09
2023-06-10T03:50:53.289Z,57.19
2023-06-10T03:53:21.893Z,57.23
2023-06-10T03:55:49.261Z,57.35
2023-06-10T03:58:20.122Z,57.47
2023-06-10T04:00:47.457Z,57.47
2023-06-10T04:03:14.945Z,57.52
2023-06-10T04:05:44.751Z,57.44
2023-06-10T04:08:11.602Z,57.43
2023-06-10T04:10:39.837Z,57.22
2023-06-10T04:13:06.518Z,57.05
2023-06-10T04:15:39.215Z,56.75
2023-06-10T04:18:09.204Z,56.69
2023-06-10T04:20:38.280Z,56.72
2023-06-10T04:23:04.951Z,56.68
2023-06-10T04:25:32.043Z,56.53
2023-06-10T04:27:58.805Z,56.28
2023-06-10T04:30:26.280Z,56.23
2023-06-10T04:32:53.955Z,55.90
2023-06-10T04:35:20.546Z,55.50
2023-06-10T04:37:47.637Z,55.33
2023-06-10T04:40:15.278Z,55.25
2023-06-10T04:42:42.815Z,55.09
2023-06-10T04:45:10.185Z,54.93
2023-06-10T04:47:39.692Z,54.71
2023-06-10T04:50:07.068Z,54.71
2023-06-10T04:52:34.215Z,54.61
2023-06-10T04:55:01.018Z,54.32
2023-06-10T04:57:27.788Z,54.04
2023-06-10T04:59:54.332Z,53.77
2023-06-10T05:02:21.031Z,53.63
2023-06-10T05:04:47.833Z,53.53
2023-06-10T05:07:14.363Z,53.26
2023-06-10T05:09:41.333Z,53.18
2023-06-10T05:12:09.469Z,52.78
2023-06-10T05:14:38.091Z,52.57
2023-06-10T05:17:06.625Z,52.69
2023-06-10T05:19:33.696Z,52.30
2023-06-10T05:22:00.206Z,51.83
2023-06-10T05:24:28.733Z,51.51
2023-06-10T05:26:55.455Z,51.33
2023-06-10T05:29:22.378Z,50.72
2023-06-10T05:31:49.321Z,50.43
2023-06-10T05:34:16.013Z,50.23
2023-06-10T05:36:42.979Z,49.85
2023-06-10T05:39:10.062Z,49.49
2023-06-10T05:41:37.337Z,49.01
2023-06-10T05:44:04.901Z,48.72
2023-06-10T05:46:31.666Z,48.95
2023-06-10T05:48:58.385Z,49.03
2023-06-10T05:51:25.995Z,48.71
2023-06-10T05:53:52.684Z,48.70
2023-06-10T05:56:19.295Z,48.37
2023-06-10T05:58:45.827Z,48.09
2023-06-10T06:01:12.527Z,48.17
2023-06-10T06:03:40.261Z,48.22
2023-06-10T06:06:07.049Z,48.15
2023-06-10T06:08:33.945Z,47.75
2023-06-10T06:11:00.765Z,47.83
2023-06-10T06:13:28.160Z,48.36
2023-06-10T06:15:54.999Z,48.53
2023-06-10T06:18:21.827Z,48.15
2023-06-10T06:20:48.330Z,47.89
2023-06-10T06:23:15.330Z,47.41
2023-06-10T06:25:42.344Z,46.04
2023-06-10T06:28:10.301Z,44.74
2023-06-10T06:30:36.847Z,44.27
2023-06-10T06:33:03.667Z,43.77
2023-06-10T06:35:34.547Z,42.88
2023-06-10T06:38:01.321Z,42.29
2023-06-10T06:40:28.654Z,42.17
2023-06-10T06:42:55.296Z,40.81
2023-06-10T06:45:51.182Z,39.13
2023-06-10T06:48:17.804Z,38.95
2023-06-10T06:50:44.677Z,38.69
2023-06-10T06:53:11.319Z,38.40
2023-06-10T06:55:38.134Z,37.84
2023-06-10T06:58:05.068Z,37.47
2023-06-10T07:00:32.395Z,36.74
2023-06-10T07:02:59.093Z,35.86
2023-06-10T07:05:27.686Z,35.69
2023-06-10T07:07:55.699Z,35.79
2023-06-10T07:10:24.047Z,35.04
2023-06-10T07:12:51.931Z,33.94
2023-06-10T07:15:18.721Z,34.05
2023-06-10T07:17:45.807Z,34.10
2023-06-10T07:20:12.612Z,33.86
2023-06-10T07:22:39.756Z,33.72
2023-06-10T07:25:07.211Z,33.53
2023-06-10T07:27:34.563Z,33.76
2023-06-10T07:30:02.161Z,33.59
2023-06-10T07:32:30.383Z,33.21
2023-06-10T07:34:59.774Z,33.30
2023-06-10T07:37:26.909Z,32.90
2023-06-10T07:39:53.547Z,32.21
2023-06-10T07:42:20.173Z,31.86
2023-06-10T07:44:47.366Z,32.12
2023-06-10T07:47:13.940Z,32.16
2023-06-10T07:49:42.290Z,31.75
2023-06-10T07:52:09.348Z,31.35
2023-06-10T07:54:35.897Z,30.98
2023-06-10T07:57:02.874Z,31.07
2023-06-10T07:59:29.612Z,31.67
2023-06-10T08:01:56.351Z,31.78
2023-06-10T08:04:23.253Z,31.40
2023-06-10T08:06:50.155Z,30.79
2023-06-10T08:09:18.880Z,30.36
2023-06-10T08:11:47.635Z,29.78
2023-06-10T08:14:14.530Z,29.59
2023-06-10T08:16:43.469Z,29.95
2023-06-10T08:19:10.146Z,30.13
2023-06-10T08:21:40.844Z,29.57
2023-06-10T08:24:07.963Z,29.68
2023-06-10T08:26:34.567Z,29.58
2023-06-10T08:29:01.330Z,29.27
2023-06-10T08:31:28.046Z,29.05
2023-06-10T08:33:54.894Z,28.63
2023-06-10T08:36:21.651Z,28.51
2023-06-10T08:38:48.339Z,28.83
2023-06-10T08:41:15.245Z,29.09
2023-06-10T08:44:00.447Z,29.03
2023-06-10T08:46:29.988Z,28.52
2023-06-10T08:48:57.119Z,28.37
2023-06-10T08:51:25.314Z,28.61
2023-06-10T08:54:01.352Z,28.97
2023-06-10T08:56:28.875Z,28.16
2023-06-10T08:58:57.224Z,28.00
2023-06-10T09:01:25.352Z,28.54
2023-06-10T09:03:51.830Z,28.65
2023-06-10T09:06:18.686Z,28.55
2023-06-10T09:08:45.444Z,27.78
2023-06-10T09:11:12.104Z,28.25
2023-06-10T09:13:38.841Z,27.85
2023-06-10T09:16:06.354Z,27.37
2023-06-10T09:18:35.124Z,26.77
2023-06-10T09:21:01.609Z,26.23
2023-06-10T09:23:28.471Z,26.34
2023-06-10T09:26:00.675Z,26.84
2023-06-10T09:28:27.311Z,26.70
2023-06-10T09:31:04.796Z,26.07
2023-06-10T09:33:31.521Z,25.50
2023-06-10T09:36:01.725Z,25.64
2023-06-10T09:38:34.408Z,25.42
2023-06-10T09:41:04.108Z,24.84
2023-06-10T09:43:41.753Z,24.53
2023-06-10T09:46:18.125Z,24.46
2023-06-10T09:48:48.660Z,24.41
2023-06-10T09:51:17.534Z,24.31
2023-06-10T09:53:48.386Z,24.52
2023-06-10T09:56:15.090Z,23.97
2023-06-10T09:58:44.034Z,22.87
2023-06-10T10:01:12.083Z,23.53
2023-06-10T10:03:51.100Z,23.96
2023-06-10T10:06:19.646Z,23.29
2023-06-10T10:08:48.142Z,23.25
2023-06-10T10:11:19.250Z,23.50
2023-06-10T10:13:47.104Z,23.03
2023-06-10T10:16:36.614Z,22.44
2023-06-10T10:19:07.897Z,22.10
2023-06-10T10:21:37.851Z,22.17
2023-06-10T10:24:10.641Z,21.97
2023-06-10T10:26:38.033Z,21.65
2023-06-10T10:29:12.117Z,21.75
2023-06-10T10:31:38.861Z,22.35
2023-06-10T10:34:10.130Z,22.75
2023-06-10T10:36:37.604Z,22.72
2023-06-10T10:39:05.011Z,23.07
2023-06-10T10:41:32.166Z,22.83
2023-06-10T10:43:59.038Z,22.42
2023-06-10T10:46:26.570Z,22.57
2023-06-10T10:48:55.408Z,22.32
2023-06-10T10:51:24.171Z,22.30
2023-06-10T10:54:16.940Z,22.39
2023-06-10T10:57:12.593Z,22.65
2023-06-10T10:59:52.740Z,22.41
2023-06-10T11:02:20.529Z,22.05
2023-06-10T11:04:48.165Z,22.16
2023-06-10T11:07:20.713Z,22.29
2023-06-10T11:10:00.910Z,22.33
2023-06-10T11:12:54.173Z,22.10
2023-06-10T11:15:27.109Z,21.60
2023-06-10T11:18:12.257Z,20.85
2023-06-10T11:20:49.079Z,21.08
2023-06-10T11:23:26.462Z,21.30
2023-06-10T11:26:12.322Z,20.84
2023-06-10T11:28:39.925Z,20.62
2023-06-10T11:31:06.716Z,20.50
2023-06-10T11:33:34.080Z,20.58
2023-06-10T11:36:00.771Z,20.71
2023-06-10T11:38:27.583Z,20.96
2023-06-10T11:40:54.282Z,21.43
2023-06-10T11:43:21.161Z,20.77
2023-06-10T11:45:48.373Z,20.79
2023-06-10T11:48:15.300Z,20.76
2023-06-10T11:50:42.144Z,20.46
2023-06-10T11:53:09.067Z,20.81
2023-06-10T11:55:42.327Z,20.49
2023-06-10T11:58:18.960Z,20.53
2023-06-10T12:00:49.886Z,20.36
2023-06-10T12:03:17.080Z,20.22
2023-06-10T12:05:56.149Z,20.29
2023-06-10T12:08:23.195Z,20.26
2023-06-10T12:10:49.806Z,20.19
2023-06-10T12:13:18.240Z,20.16
2023-06-10T12:15:45.842Z,19.83
2023-06-10T12:18:19.430Z,19.87
2023-06-10T12:20:47.207Z,20.01
2023-06-10T12:23:14.912Z,20.19
2023-06-10T12:25:51.590Z,20.12
2023-06-10T12:28:26.739Z,19.65
2023-06-10T12:31:09.471Z,19.42
2023-06-10T12:33:36.309Z,19.64
2023-06-10T12:36:03.037Z,20.07
2023-06-10T12:38:30.888Z,19.86
2023-06-10T12:41:06.606Z,20.15
2023-06-10T12:43:33.813Z,20.07
2023-06-10T12:46:10.330Z,20.20
2023-06-10T12:48:36.878Z,20.19
2023-06-10T12:51:03.371Z,19.68
2023-06-10T12:53:30.131Z,19.48
2023-06-10T12:55:58.360Z,19.37
2023-06-10T12:58:25.385Z,19.72
2023-06-10T13:00:54.655Z,19.72
2023-06-10T13:03:22.167Z,19.16
2023-06-10T13:05:49.546Z,19.23
2023-06-10T13:08:16.653Z,19.48
2023-06-10T13:10:43.185Z,19.31
2023-06-10T13:13:10.249Z,19.16
2023-06-10T13:15:39.390Z,19.09
2023-06-10T13:18:09.333Z,18.99
2023-06-10T13:20:36.621Z,19.00
2023-06-10T13:23:03.614Z,18.91
2023-06-10T13:25:30.464Z,19.49
2023-06-10T13:27:57.951Z,20.00
2023-06-10T13:30:25.200Z,20.63
2023-06-10T13:32:52.724Z,20.84
2023-06-10T13:35:19.416Z,20.22
2023-06-10T13:37:46.426Z,19.76
2023-06-10T13:40:16.071Z,19.88
2023-06-10T13:42:42.747Z,19.86
2023-06-10T13:45:11.030Z,20.03
2023-06-10T13:47:38.510Z,20.44
2023-06-10T13:50:07.905Z,21.21
2023-06-10T13:52:35.038Z,21.49
2023-06-10T13:55:01.545Z,21.11
2023-06-10T13:57:28.621Z,20.92
2023-06-10T14:00:03.399Z,20.87
2023-06-10T14:02:32.050Z,20.53
2023-06-10T14:04:59.113Z,20.39
2023-06-10T14:07:26.951Z,20.34
2023-06-10T14:09:54.438Z,20.29
2023-06-10T14:12:22.809Z,20.44
2023-06-10T14:14:50.447Z,20.13
2023-06-10T14:17:17.238Z,19.86
2023-06-10T14:19:44.189Z,19.71
2023-06-10T14:22:10.871Z,19.57
2023-06-10T14:24:38.156Z,20.08
2023-06-10T14:27:05.243Z,19.62
2023-06-10T14:29:34.026Z,19.46
2023-06-10T14:32:00.923Z,19.46
2023-06-10T14:34:34.254Z,19.50
2023-06-10T14:37:01.335Z,19.62
2023-06-10T14:39:28.205Z,19.78
2023-06-10T14:41:54.831Z,20.00
2023-06-10T14:44:21.691Z,20.05
2023-06-10T14:46:49.164Z,20.38
2023-06-10T14:49:16.508Z,20.02
2023-06-10T14:51:43.537Z,19.56
2023-06-10T14:54:10.406Z,19.82
2023-06-10T14:56:37.871Z,20.12
2023-06-10T14:59:04.638Z,20.14
2023-06-10T15:01:31.567Z,20.41
2023-06-10T15:03:58.521Z,20.79
2023-06-10T15:06:25.835Z,21.19
2023-06-10T15:08:52.590Z,21.36
2023-06-10T15:11:19.434Z,21.47
2023-06-10T15:13:46.703Z,21.62
2023-06-10T15:16:15.657Z,21.65
2023-06-10T15:18:42.747Z,22.00
2023-06-10T15:21:10.199Z,22.35
2023-06-10T15:23:37.641Z,22.08
2023-06-10T15:26:05.146Z,21.98
2023-06-10T15:28:35.945Z,22.09
2023-06-10T15:31:03.631Z,22.17
2023-06-10T15:33:32.942Z,22.36
2023-06-10T15:36:00.256Z,22.46
2023-06-10T15:38:28.028Z,22.52
2023-06-10T15:40:56.386Z,22.76
2023-06-10T15:43:23.927Z,22.67
2023-06-10T15:45:51.857Z,22.53
2023-06-10T15:48:21.753Z,22.73
2023-06-10T15:50:49.322Z,23.35
2023-06-10T15:53:16.592Z,23.81
2023-06-10T15:55:43.368Z,24.43
2023-06-10T15:58:10.081Z,24.93
2023-06-10T16:00:36.650Z,25.94
2023-06-10T16:03:03.383Z,26.43
2023-06-10T16:05:30.440Z,26.60
2023-06-10T16:07:59.850Z,26.92
2023-06-10T16:10:29.568Z,27.37
2023-06-10T16:12:56.669Z,28.17
2023-06-10T16:15:23.271Z,27.95
2023-06-10T16:17:51.105Z,28.46
2023-06-10T16:20:17.689Z,29.33
2023-06-10T16:22:44.201Z,29.83
2023-06-10T16:25:11.028Z,29.78
2023-06-10T16:27:38.005Z,30.03
2023-06-10T16:30:05.587Z,30.31
2023-06-10T16:32:32.483Z,30.48
2023-06-10T16:34:59.064Z,30.77
2023-06-10T16:37:25.991Z,30.74
2023-06-10T16:39:52.995Z,30.71
2023-06-10T16:42:19.499Z,30.99
2023-06-10T16:44:46.136Z,31.08
2023-06-10T16:47:12.765Z,31.25
2023-06-10T16:49:39.401Z,31.53
2023-06-10T16:52:06.436Z,31.90
2023-06-10T16:54:33.148Z,32.48
2023-06-10T16:56:59.824Z,33.34
2023-06-10T16:59:26.460Z,33.72
2023-06-10T17:01:53.182Z,34.02
2023-06-10T17:04:19.897Z,34.41
2023-06-10T17:06:46.473Z,34.65
2023-06-10T17:09:13.012Z,35.03
2023-06-10T17:11:39.821Z,35.04
2023-06-10T17:14:06.634Z,35.31
2023-06-10T17:16:33.774Z,35.60
2023-06-10T17:19:00.396Z,35.85
2023-06-10T17:21:27.707Z,36.18
2023-06-10T17:23:55.759Z,36.42
2023-06-10T17:26:22.999Z,36.91
2023-06-10T17:28:49.614Z,37.26
2023-06-10T17:31:16.325Z,37.61
2023-06-10T17:33:43.144Z,37.87
2023-06-10T17:36:09.859Z,38.01
2023-06-10T17:38:37.278Z,38.35
2023-06-10T17:41:04.089Z,38.93
2023-06-10T17:43:30.756Z,39.19
2023-06-10T17:45:58.390Z,39.59
2023-06-10T17:48:25.165Z,40.00
2023-06-10T17:50:51.904Z,40.45
2023-06-10T17:53:19.253Z,41.00
2023-06-10T17:55:45.766Z,41.51
2023-06-10T17:58:13.929Z,41.89
2023-06-10T18:00:40.666Z,42.20
2023-06-10T18:03:07.342Z,42.50
2023-06-10T18:05:33.883Z,42.77
2023-06-10T18:08:01.041Z,42.96
2023-06-10T18:10:27.782Z,43.06
2023-06-10T18:12:54.630Z,43.06
2023-06-10T18:15:21.336Z,42.83
2023-06-10T18:17:48.142Z,42.65
2023-06-10T18:20:14.934Z,42.80
2023-06-10T18:22:41.719Z,42.95
2023-06-10T18:25:08.753Z,43.08
2023-06-10T18:27:36.359Z,42.95
2023-06-10T18:30:03.054Z,42.74
2023-06-10T18:32:31.174Z,42.48
2023-06-10T18:34:57.661Z,42.51
2023-06-10T18:37:24.277Z,42.42
2023-06-10T18:39:50.813Z,42.05
2023-06-10T18:42:17.402Z,41.36
2023-06-10T18:44:44.071Z,40.90
2023-06-10T18:47:11.095Z,40.75
2023-06-10T18:49:38.680Z,40.65
2023-06-10T18:52:06.465Z,40.53
2023-06-10T18:54:35.188Z,40.49
2023-06-10T18:57:02.360Z,40.64
2023-06-10T18:59:29.118Z,40.74
2023-06-10T19:01:55.897Z,40.89
2023-06-10T19:04:22.453Z,41.07
2023-06-10T19:06:50.197Z,41.25
2023-06-10T19:09:16.989Z,41.37
2023-06-10T19:11:45.178Z,41.43
2023-06-10T19:14:12.320Z,41.58
2023-06-10T19:16:39.373Z,41.67
2023-06-10T19:19:06.407Z,41.87
2023-06-10T19:21:32.929Z,42.05
2023-06-10T19:24:00.478Z,42.12
2023-06-10T19:26:27.853Z,42.23
2023-06-10T19:28:55.361Z,42.38
2023-06-10T19:31:22.091Z,42.42
2023-06-10T19:33:48.906Z,42.63
2023-06-10T19:36:16.951Z,42.63
2023-06-10T19:38:43.442Z,42.65
2023-06-10T19:41:10.220Z,42.79
2023-06-10T19:43:37.502Z,42.87
2023-06-10T19:46:04.091Z,42.86
2023-06-10T19:48:31.935Z,42.92
2023-06-10T19:50:58.635Z,42.87
2023-06-10T19:53:25.583Z,42.95
2023-06-10T19:55:52.270Z,42.93
2023-06-10T19:58:18.760Z,43.06
2023-06-10T20:00:45.350Z,43.24
2023-06-10T20:03:11.999Z,43.57
2023-06-10T20:05:38.704Z,43.96
2023-06-10T20:08:05.398Z,44.17
2023-06-10T20:10:32.221Z,44.45
2023-06-10T20:12:58.821Z,44.37
2023-06-10T20:15:25.350Z,44.36
2023-06-10T20:17:53.196Z,44.82
2023-06-10T20:20:19.950Z,45.37
2023-06-10T20:22:47.065Z,45.74
2023-06-10T20:25:14.083Z,46.06
2023-06-10T20:27:41.046Z,46.46
2023-06-10T20:30:08.552Z,47.09
2023-06-10T20:32:36.089Z,47.52
2023-06-10T20:35:02.998Z,47.97
2023-06-10T20:37:29.776Z,48.36
2023-06-10T20:39:56.369Z,48.84
2023-06-10T20:42:23.891Z,49.04
2023-06-10T20:44:51.925Z,49.35
2023-06-10T20:47:19.157Z,49.59
2023-06-10T20:49:46.087Z,49.85
2023-06-10T20:52:12.724Z,49.90
2023-06-10T20:54:39.211Z,50.05
2023-06-10T20:57:06.276Z,49.98
2023-06-10T20:59:33.071Z,49.88
2023-06-10T21:01:59.884Z,50.11
2023-06-10T21:04:26.499Z,49.91
2023-06-10T21:06:53.204Z,49.94
2023-06-10T21:09:19.857Z,49.97
2023-06-10T21:11:46.539Z,49.86
2023-06-10T21:14:13.277Z,49.79
2023-06-10T21:16:59.665Z,49.86
2023-06-10T21:19:26.231Z,49.94
2023-06-10T21:21:53.208Z,50.03
2023-06-10T21:24:19.874Z,50.01
2023-06-10T21:26:46.564Z,50.15
2023-06-10T21:29:14.050Z,50.46
2023-06-10T21:31:40.693Z,50.60
2023-06-10T21:34:10.029Z,50.76
2023-06-10T21:36:37.301Z,51.00
2023-06-10T21:39:04.426Z,51.21
2023-06-10T21:41:31.616Z,51.38
2023-06-10T21:43:58.833Z,51.54
2023-06-10T21:46:26.656Z,51.65
2023-06-10T21:48:53.393Z,51.51
2023-06-10T21:51:19.996Z,51.44
2023-06-10T21:53:46.564Z,51.42
2023-06-10T21:56:13.220Z,51.53
2023-06-10T21:58:39.995Z,51.55
2023-06-10T22:01:07.033Z,51.48
2023-06-10T22:03:33.514Z,51.41
2023-06-10T22:06:02.368Z,51.55
2023-06-10T22:08:29.216Z,51.56
2023-06-10T22:10:55.921Z,51.65
2023-06-10T22:13:22.919Z,51.57
2023-06-10T22:15:50.109Z,51.69
2023-06-10T22:18:17.217Z,51.76
2023-06-10T22:20:43.889Z,51.88
2023-06-10T22:23:11.302Z,51.97
2023-06-10T22:25:38.279Z,52.16
2023-06-10T22:28:04.940Z,52.36
2023-06-10T22:30:31.914Z,52.43
2023-06-10T22:32:58.832Z,52.71
2023-06-10T22:35:25.596Z,53.07
2023-06-10T22:37:52.267Z,53.33
2023-06-10T22:40:18.821Z,53.55
2023-06-10T22:42:45.323Z,53.74
2023-06-10T22:45:12.437Z,54.00
2023-06-10T22:47:39.560Z,54.22
2023-06-10T22:50:07.015Z,54.50
2023-06-10T22:52:33.955Z,54.60
2023-06-10T22:55:00.517Z,54.68
2023-06-10T22:57:27.023Z,54.94
2023-06-10T22:59:53.697Z,55.07
2023-06-10T23:02:20.682Z,55.00
2023-06-10T23:04:47.213Z,55.14
2023-06-10T23:07:15.570Z,55.24
2023-06-10T23:09:42.412Z,55.26
2023-06-10T23:12:10.378Z,55.30
2023-06-10T23:14:36.826Z,55.42
2023-06-10T23:17:04.163Z,55.43
2023-06-10T23:19:30.740Z,55.58
2023-06-10T23:21:59.155Z,55.54
2023-06-10T23:24:29.253Z,55.63
2023-06-10T23:26:56.902Z,55.78
2023-06-10T23:29:24.046Z,55.94
2023-06-10T23:31:50.903Z,55.97
2023-06-10T23:34:17.389Z,56.18
2023-06-10T23:36:47.225Z,56.22
2023-06-10T23:39:14.865Z,56.20
2023-06-10T23:41:41.885Z,56.38
2023-06-10T23:44:08.482Z,56.48
2023-06-10T23:46:35.392Z,56.59
2023-06-10T23:49:03.990Z,57.03
2023-06-10T23:51:31.658Z,56.96
2023-06-10T23:53:58.164Z,57.09
2023-06-10T23:56:25.438Z,57.24
2023-06-10T23:58:51.924Z,57.43
